Tropical Cyclones
[Index]
Main Index Home Page Stock Weather Photos Extreme Storms Discussion Storm News and Storm Chasing Reports Tropical Cyclones / Hurricanes / Typhoons Weather Data and Links Wild Fires / Bushfires Weather Observation Techniques Weather Picture Catalogue Tornado Pictures and Reports Stock Video Footage and DVDs for sale
Season 2004-2005 Tropical Cyclone HENNIE Track Map
Season 2004-2005 Summaries: [BoM-AU] [JTWC-AU] [JTWC-SIO] [JTWC-SPAC] [JTWC-SH]
<<- Previous TC | JTWC 2004-2005 Season | Next TC ->>

click for intensity scale information  Lat/long Grid: Show Hide

 Date Labels: Show Hide

Joint Typhoon Warning Centre Cyclone Data

Name: HENNIE

21 Mar 2005 00:00 UTC to 28 Mar 2005 00:00 UTC

    date/time    lat    long     hPa   cat  kts
2005-03-21 00   12.0    64.0    1006         15          
2005-03-21 06   12.8    63.3    1004         20          
2005-03-21 12   13.4    62.5    1002         25          
2005-03-21 18   14.0    61.7    1000         30          
2005-03-22 00   14.5    60.7    1000         30          
2005-03-22 06   14.9    60.0    1000         30          
2005-03-22 12   15.3    59.3     997         35          
2005-03-22 18   15.6    58.7     994    1    40          
2005-03-23 00   16.0    58.5     994    1    40          
2005-03-23 06   16.7    58.7     991    1    45          
2005-03-23 12   17.6    58.8     991    1    45          
2005-03-23 18   18.6    58.7     984    2    55          
2005-03-23 18   18.6    58.7     984    2    55          
2005-03-24 00   19.5    58.8     980    2    60          
2005-03-24 00   19.5    58.8     980    2    60          
2005-03-24 06   20.4    58.8     976    2    65          
2005-03-24 06   20.4    58.8     976    2    65          
2005-03-24 12   21.3    58.7     976    2    65          
2005-03-24 12   21.3    58.7     976    2    65          
2005-03-24 18   21.9    58.8     980    2    60          
2005-03-24 18   21.9    58.8     980    2    60          
2005-03-25 00   22.3    58.9     980    2    60          
2005-03-25 00   22.3    58.9     980    2    60          
2005-03-25 06   22.7    59.3     984    2    55          
2005-03-25 06   22.7    59.3     984    2    55          
2005-03-25 12   22.8    60.0     987    1    50          
2005-03-25 18   23.1    60.6     991    1    45          
2005-03-26 00   23.5    61.1     991    1    45          
2005-03-26 06   23.9    61.3     991    1    45          
2005-03-26 12   24.4    61.4     991    1    45          
2005-03-26 18   24.8    61.6     991    1    45          
2005-03-27 00   25.3    61.7     997         35          
2005-03-27 06   25.7    62.1    1000         30          
2005-03-27 12   25.9    62.6    1002         25          
2005-03-27 18   26.2    63.1    1002         25          
2005-03-28 00   26.3    63.8    1004         20          
Winds are 1-min average.

Tropical cyclone tracks developed by Michael Bath using data from the Joint Typhoon Warning Centre Best Tracks and Google Maps.


[Australian Severe Weather index] [Copyright Notice] [Email Contacts] [Search This Site] [Privacy Policy]
Document: tropical_cyclone_hennie.htm Updated: 28 June 2017